sensor_id;sensor_type;location;lat;lon;timestamp;temperature;humidity
54158;DHT22;40065;49.894;10.358;2022-09-09T00:01:37;17.40;97.20
54158;DHT22;40065;49.894;10.358;2022-09-09T00:11:54;17.60;97.00
54158;DHT22;40065;49.894;10.358;2022-09-09T00:17:03;17.60;97.00
54158;DHT22;40065;49.894;10.358;2022-09-09T00:22:14;17.50;97.00
54158;DHT22;40065;49.894;10.358;2022-09-09T00:27:36;17.60;97.00
54158;DHT22;40065;49.894;10.358;2022-09-09T00:32:41;17.80;96.00
54158;DHT22;40065;49.894;10.358;2022-09-09T00:37:45;17.70;96.40
54158;DHT22;40065;49.894;10.358;2022-09-09T00:48:31;17.50;97.00
54158;DHT22;40065;49.894;10.358;2022-09-09T00:54:15;17.50;96.50
54158;DHT22;40065;49.894;10.358;2022-09-09T01:04:44;17.70;96.10
54158;DHT22;40065;49.894;10.358;2022-09-09T01:09:57;17.80;97.40
54158;DHT22;40065;49.894;10.358;2022-09-09T01:20:25;16.80;99.90
54158;DHT22;40065;49.894;10.358;2022-09-09T01:31:09;16.30;99.90
54158;DHT22;40065;49.894;10.358;2022-09-09T01:36:35;16.40;99.90
54158;DHT22;40065;49.894;10.358;2022-09-09T01:41:39;16.40;99.90
54158;DHT22;40065;49.894;10.358;2022-09-09T01:46:47;16.50;99.90
54158;DHT22;40065;49.894;10.358;2022-09-09T01:51:55;16.40;99.90
54158;DHT22;40065;49.894;10.358;2022-09-09T01:57:40;16.40;99.90
54158;DHT22;40065;49.894;10.358;2022-09-09T02:08:35;16.30;99.90
54158;DHT22;40065;49.894;10.358;2022-09-09T02:13:45;16.20;99.90
54158;DHT22;40065;49.894;10.358;2022-09-09T02:19:15;16.10;99.90
54158;DHT22;40065;49.894;10.358;2022-09-09T02:24:36;16.10;99.90
54158;DHT22;40065;49.894;10.358;2022-09-09T02:29:51;16.00;99.90
54158;DHT22;40065;49.894;10.358;2022-09-09T02:35:15;16.10;99.90
54158;DHT22;40065;49.894;10.358;2022-09-09T02:40:19;16.10;99.90
54158;DHT22;40065;49.894;10.358;2022-09-09T02:45:36;16.40;99.90
54158;DHT22;40065;49.894;10.358;2022-09-09T02:51:04;16.60;99.90
54158;DHT22;40065;49.894;10.358;2022-09-09T02:56:21;16.60;99.90
54158;DHT22;40065;49.894;10.358;2022-09-09T03:01:24;16.60;99.90
54158;DHT22;40065;49.894;10.358;2022-09-09T03:06:26;16.60;99.90
54158;DHT22;40065;49.894;10.358;2022-09-09T03:11:38;16.70;99.90
54158;DHT22;40065;49.894;10.358;2022-09-09T03:16:41;16.70;99.90
54158;DHT22;40065;49.894;10.358;2022-09-09T03:21:47;16.70;99.90
54158;DHT22;40065;49.894;10.358;2022-09-09T03:26:49;16.80;99.90
54158;DHT22;40065;49.894;10.358;2022-09-09T03:31:52;16.90;99.90
54158;DHT22;40065;49.894;10.358;2022-09-09T03:36:54;17.10;99.90
54158;DHT22;40065;49.894;10.358;2022-09-09T03:41:57;17.10;99.90
54158;DHT22;40065;49.894;10.358;2022-09-09T03:46:58;17.10;99.90
54158;DHT22;40065;49.894;10.358;2022-09-09T03:52:02;17.00;99.90
54158;DHT22;40065;49.894;10.358;2022-09-09T03:57:04;17.00;99.90
54158;DHT22;40065;49.894;10.358;2022-09-09T04:02:06;16.90;99.90
54158;DHT22;40065;49.894;10.358;2022-09-09T04:07:08;16.90;99.90
54158;DHT22;40065;49.894;10.358;2022-09-09T04:12:10;17.00;99.90
54158;DHT22;40065;49.894;10.358;2022-09-09T04:17:15;16.90;99.90
54158;DHT22;40065;49.894;10.358;2022-09-09T04:22:17;16.70;99.90
54158;DHT22;40065;49.894;10.358;2022-09-09T04:27:19;16.60;99.90
54158;DHT22;40065;49.894;10.358;2022-09-09T04:32:21;16.80;99.90
54158;DHT22;40065;49.894;10.358;2022-09-09T04:37:23;16.90;99.90
54158;DHT22;40065;49.894;10.358;2022-09-09T04:42:26;16.80;99.90
54158;DHT22;40065;49.894;10.358;2022-09-09T04:47:29;16.90;99.90
54158;DHT22;40065;49.894;10.358;2022-09-09T04:52:36;17.00;99.90
54158;DHT22;40065;49.894;10.358;2022-09-09T04:57:39;17.20;99.90
54158;DHT22;40065;49.894;10.358;2022-09-09T05:02:41;17.30;99.90
54158;DHT22;40065;49.894;10.358;2022-09-09T05:07:44;17.20;99.90
54158;DHT22;40065;49.894;10.358;2022-09-09T05:12:53;17.20;99.90
54158;DHT22;40065;49.894;10.358;2022-09-09T05:17:59;17.20;99.90
54158;DHT22;40065;49.894;10.358;2022-09-09T05:23:04;17.10;99.90
54158;DHT22;40065;49.894;10.358;2022-09-09T05:28:07;17.10;99.90
54158;DHT22;40065;49.894;10.358;2022-09-09T05:33:09;17.20;99.90
54158;DHT22;40065;49.894;10.358;2022-09-09T05:38:12;17.20;99.90
54158;DHT22;40065;49.894;10.358;2022-09-09T05:43:14;17.20;99.90
54158;DHT22;40065;49.894;10.358;2022-09-09T05:48:16;17.30;99.90
54158;DHT22;40065;49.894;10.358;2022-09-09T05:53:19;17.90;99.90
54158;DHT22;40065;49.894;10.358;2022-09-09T05:58:22;20.40;96.60
54158;DHT22;40065;49.894;10.358;2022-09-09T06:03:25;22.80;92.20
54158;DHT22;40065;49.894;10.358;2022-09-09T06:08:27;24.10;89.30
54158;DHT22;40065;49.894;10.358;2022-09-09T06:13:30;22.80;90.20
54158;DHT22;40065;49.894;10.358;2022-09-09T06:18:32;22.80;90.40
54158;DHT22;40065;49.894;10.358;2022-09-09T06:23:34;21.00;92.90
54158;DHT22;40065;49.894;10.358;2022-09-09T06:28:38;22.50;91.30
54158;DHT22;40065;49.894;10.358;2022-09-09T06:33:41;20.90;92.70
54158;DHT22;40065;49.894;10.358;2022-09-09T06:38:44;20.00;94.60
54158;DHT22;40065;49.894;10.358;2022-09-09T06:43:48;19.70;95.30
54158;DHT22;40065;49.894;10.358;2022-09-09T06:48:51;19.40;95.90
54158;DHT22;40065;49.894;10.358;2022-09-09T06:53:55;19.60;96.10
54158;DHT22;40065;49.894;10.358;2022-09-09T06:59:00;20.10;95.50
54158;DHT22;40065;49.894;10.358;2022-09-09T07:04:07;20.40;95.30
54158;DHT22;40065;49.894;10.358;2022-09-09T07:09:15;21.40;92.50
54158;DHT22;40065;49.894;10.358;2022-09-09T07:14:20;20.30;93.70
54158;DHT22;40065;49.894;10.358;2022-09-09T07:19:35;19.30;95.80
54158;DHT22;40065;49.894;10.358;2022-09-09T07:24:38;19.30;95.90
54158;DHT22;40065;49.894;10.358;2022-09-09T07:29:41;20.90;94.40
54158;DHT22;40065;49.894;10.358;2022-09-09T07:34:43;23.60;89.90
54158;DHT22;40065;49.894;10.358;2022-09-09T07:39:46;21.80;91.30
54158;DHT22;40065;49.894;10.358;2022-09-09T07:44:48;20.70;93.10
54158;DHT22;40065;49.894;10.358;2022-09-09T07:49:51;20.40;94.10
54158;DHT22;40065;49.894;10.358;2022-09-09T07:55:01;20.70;93.70
54158;DHT22;40065;49.894;10.358;2022-09-09T08:00:05;21.30;93.20
54158;DHT22;40065;49.894;10.358;2022-09-09T08:05:12;22.20;91.40
54158;DHT22;40065;49.894;10.358;2022-09-09T08:10:15;21.90;91.60
54158;DHT22;40065;49.894;10.358;2022-09-09T08:15:18;21.90;91.80
54158;DHT22;40065;49.894;10.358;2022-09-09T08:20:20;24.40;87.70
54158;DHT22;40065;49.894;10.358;2022-09-09T08:25:25;26.90;78.90
54158;DHT22;40065;49.894;10.358;2022-09-09T08:30:27;24.80;81.50
54158;DHT22;40065;49.894;10.358;2022-09-09T08:35:29;24.40;83.80
54158;DHT22;40065;49.894;10.358;2022-09-09T08:40:37;24.20;84.70
54158;DHT22;40065;49.894;10.358;2022-09-09T08:45:50;23.90;85.10
54158;DHT22;40065;49.894;10.358;2022-09-09T08:50:57;23.30;85.90
54158;DHT22;40065;49.894;10.358;2022-09-09T08:56:12;23.20;86.80
54158;DHT22;40065;49.894;10.358;2022-09-09T09:07:25;26.00;79.90
54158;DHT22;40065;49.894;10.358;2022-09-09T09:12:40;26.70;78.00
54158;DHT22;40065;49.894;10.358;2022-09-09T09:17:45;26.00;77.90
54158;DHT22;40065;49.894;10.358;2022-09-09T09:22:55;24.70;81.30
54158;DHT22;40065;49.894;10.358;2022-09-09T09:33:49;25.80;79.30
54158;DHT22;40065;49.894;10.358;2022-09-09T09:39:01;27.80;74.80
54158;DHT22;40065;49.894;10.358;2022-09-09T09:44:29;26.70;75.30
54158;DHT22;40065;49.894;10.358;2022-09-09T09:49:36;25.80;79.10
54158;DHT22;40065;49.894;10.358;2022-09-09T09:54:41;27.00;76.40
54158;DHT22;40065;49.894;10.358;2022-09-09T09:59:44;26.90;74.80
54158;DHT22;40065;49.894;10.358;2022-09-09T10:05:12;26.30;74.50
54158;DHT22;40065;49.894;10.358;2022-09-09T10:10:24;26.10;74.20
54158;DHT22;40065;49.894;10.358;2022-09-09T10:21:40;25.60;74.10
54158;DHT22;40065;49.894;10.358;2022-09-09T10:54:32;27.90;65.50
54158;DHT22;40065;49.894;10.358;2022-09-09T10:59:40;28.10;65.80
54158;DHT22;40065;49.894;10.358;2022-09-09T11:04:49;27.30;66.80
54158;DHT22;40065;49.894;10.358;2022-09-09T11:09:56;26.40;66.90
54158;DHT22;40065;49.894;10.358;2022-09-09T11:15:17;26.20;68.60
54158;DHT22;40065;49.894;10.358;2022-09-09T11:20:21;25.80;68.10
54158;DHT22;40065;49.894;10.358;2022-09-09T11:25:32;24.10;71.50
54158;DHT22;40065;49.894;10.358;2022-09-09T11:36:42;22.10;73.40
54158;DHT22;40065;49.894;10.358;2022-09-09T11:41:45;21.50;73.90
54158;DHT22;40065;49.894;10.358;2022-09-09T11:46:50;20.80;87.10
54158;DHT22;40065;49.894;10.358;2022-09-09T11:51:52;19.70;91.20
54158;DHT22;40065;49.894;10.358;2022-09-09T11:56:55;19.50;92.70
54158;DHT22;40065;49.894;10.358;2022-09-09T12:02:24;20.10;93.00
54158;DHT22;40065;49.894;10.358;2022-09-09T12:07:51;21.50;91.30
54158;DHT22;40065;49.894;10.358;2022-09-09T12:12:55;21.80;91.30
54158;DHT22;40065;49.894;10.358;2022-09-09T12:17:58;22.50;89.80
54158;DHT22;40065;49.894;10.358;2022-09-09T12:28:28;24.50;82.10
54158;DHT22;40065;49.894;10.358;2022-09-09T12:33:40;24.70;78.70
54158;DHT22;40065;49.894;10.358;2022-09-09T12:38:45;25.60;79.30
54158;DHT22;40065;49.894;10.358;2022-09-09T12:43:47;25.40;76.00
54158;DHT22;40065;49.894;10.358;2022-09-09T12:48:49;25.50;74.70
54158;DHT22;40065;49.894;10.358;2022-09-09T12:53:51;25.80;72.60
54158;DHT22;40065;49.894;10.358;2022-09-09T12:58:55;26.00;71.30
54158;DHT22;40065;49.894;10.358;2022-09-09T13:03:57;25.70;70.70
54158;DHT22;40065;49.894;10.358;2022-09-09T13:09:01;25.60;71.40
54158;DHT22;40065;49.894;10.358;2022-09-09T13:14:03;26.00;72.50
54158;DHT22;40065;49.894;10.358;2022-09-09T13:19:13;25.70;73.80
54158;DHT22;40065;49.894;10.358;2022-09-09T13:24:33;25.70;73.10
54158;DHT22;40065;49.894;10.358;2022-09-09T13:29:36;25.70;73.30
54158;DHT22;40065;49.894;10.358;2022-09-09T13:34:38;25.30;74.20
54158;DHT22;40065;49.894;10.358;2022-09-09T13:39:51;24.60;76.80
54158;DHT22;40065;49.894;10.358;2022-09-09T13:44:58;23.60;80.30
54158;DHT22;40065;49.894;10.358;2022-09-09T13:55:26;23.50;80.70
54158;DHT22;40065;49.894;10.358;2022-09-09T14:00:33;23.90;80.00
54158;DHT22;40065;49.894;10.358;2022-09-09T14:05:35;23.90;78.90
54158;DHT22;40065;49.894;10.358;2022-09-09T14:10:37;23.80;78.80
54158;DHT22;40065;49.894;10.358;2022-09-09T14:15:39;23.50;80.20
54158;DHT22;40065;49.894;10.358;2022-09-09T14:20:40;23.60;79.50
54158;DHT22;40065;49.894;10.358;2022-09-09T14:25:44;23.40;80.60
54158;DHT22;40065;49.894;10.358;2022-09-09T14:30:46;23.20;80.20
54158;DHT22;40065;49.894;10.358;2022-09-09T14:35:48;23.20;79.20
54158;DHT22;40065;49.894;10.358;2022-09-09T14:40:56;23.10;78.50
54158;DHT22;40065;49.894;10.358;2022-09-09T14:46:10;22.80;79.80
54158;DHT22;40065;49.894;10.358;2022-09-09T14:51:19;22.70;80.80
54158;DHT22;40065;49.894;10.358;2022-09-09T14:56:24;22.40;90.80
54158;DHT22;40065;49.894;10.358;2022-09-09T15:01:26;21.70;93.00
54158;DHT22;40065;49.894;10.358;2022-09-09T15:06:32;21.30;94.90
54158;DHT22;40065;49.894;10.358;2022-09-09T15:11:40;20.90;95.50
54158;DHT22;40065;49.894;10.358;2022-09-09T15:16:41;20.60;95.80
54158;DHT22;40065;49.894;10.358;2022-09-09T15:21:43;20.10;96.30
54158;DHT22;40065;49.894;10.358;2022-09-09T15:26:45;20.10;98.00
54158;DHT22;40065;49.894;10.358;2022-09-09T15:31:47;20.00;98.70
54158;DHT22;40065;49.894;10.358;2022-09-09T15:36:49;19.90;99.80
54158;DHT22;40065;49.894;10.358;2022-09-09T15:41:50;19.60;99.90
54158;DHT22;40065;49.894;10.358;2022-09-09T15:46:52;19.60;99.90
54158;DHT22;40065;49.894;10.358;2022-09-09T15:51:59;19.50;99.70
54158;DHT22;40065;49.894;10.358;2022-09-09T15:57:06;19.60;99.90
54158;DHT22;40065;49.894;10.358;2022-09-09T16:02:09;19.80;99.70
54158;DHT22;40065;49.894;10.358;2022-09-09T16:07:11;20.20;98.10
54158;DHT22;40065;49.894;10.358;2022-09-09T16:12:13;20.20;97.90
54158;DHT22;40065;49.894;10.358;2022-09-09T16:17:15;20.40;96.40
54158;DHT22;40065;49.894;10.358;2022-09-09T16:22:17;20.30;97.30
54158;DHT22;40065;49.894;10.358;2022-09-09T16:27:19;20.10;97.80
54158;DHT22;40065;49.894;10.358;2022-09-09T16:32:21;20.10;97.90
54158;DHT22;40065;49.894;10.358;2022-09-09T16:37:23;19.70;98.40
54158;DHT22;40065;49.894;10.358;2022-09-09T16:42:25;19.50;98.40
54158;DHT22;40065;49.894;10.358;2022-09-09T16:47:27;19.40;97.70
54158;DHT22;40065;49.894;10.358;2022-09-09T16:52:29;19.10;98.40
54158;DHT22;40065;49.894;10.358;2022-09-09T16:57:31;19.00;98.50
54158;DHT22;40065;49.894;10.358;2022-09-09T17:02:32;18.90;98.80
54158;DHT22;40065;49.894;10.358;2022-09-09T17:07:35;18.70;99.70
54158;DHT22;40065;49.894;10.358;2022-09-09T17:12:37;18.60;99.90
54158;DHT22;40065;49.894;10.358;2022-09-09T17:17:42;18.70;99.90
54158;DHT22;40065;49.894;10.358;2022-09-09T17:22:46;18.60;99.90
54158;DHT22;40065;49.894;10.358;2022-09-09T17:27:48;18.70;99.90
54158;DHT22;40065;49.894;10.358;2022-09-09T17:32:50;18.40;99.90
54158;DHT22;40065;49.894;10.358;2022-09-09T17:37:53;18.40;99.90
54158;DHT22;40065;49.894;10.358;2022-09-09T17:42:56;18.20;99.90
54158;DHT22;40065;49.894;10.358;2022-09-09T17:47:58;18.20;99.90
54158;DHT22;40065;49.894;10.358;2022-09-09T17:53:00;18.30;98.30
54158;DHT22;40065;49.894;10.358;2022-09-09T17:58:02;18.40;98.50
54158;DHT22;40065;49.894;10.358;2022-09-09T18:03:04;18.40;97.90
54158;DHT22;40065;49.894;10.358;2022-09-09T18:08:06;18.20;98.60
54158;DHT22;40065;49.894;10.358;2022-09-09T18:13:07;18.20;98.60
54158;DHT22;40065;49.894;10.358;2022-09-09T18:18:10;18.00;99.10
54158;DHT22;40065;49.894;10.358;2022-09-09T18:23:12;17.80;99.90
54158;DHT22;40065;49.894;10.358;2022-09-09T18:28:14;17.70;99.90
54158;DHT22;40065;49.894;10.358;2022-09-09T18:33:15;18.00;99.70
54158;DHT22;40065;49.894;10.358;2022-09-09T18:38:17;18.00;99.90
54158;DHT22;40065;49.894;10.358;2022-09-09T18:43:19;18.00;99.80
54158;DHT22;40065;49.894;10.358;2022-09-09T18:48:21;17.90;99.90
54158;DHT22;40065;49.894;10.358;2022-09-09T18:53:22;17.70;99.90
54158;DHT22;40065;49.894;10.358;2022-09-09T18:58:24;17.80;99.90
54158;DHT22;40065;49.894;10.358;2022-09-09T19:03:28;17.80;99.90
54158;DHT22;40065;49.894;10.358;2022-09-09T19:08:33;17.50;99.90
54158;DHT22;40065;49.894;10.358;2022-09-09T19:13:36;17.40;99.90
54158;DHT22;40065;49.894;10.358;2022-09-09T19:18:38;17.20;99.90
54158;DHT22;40065;49.894;10.358;2022-09-09T19:30:35;17.30;99.90
54158;DHT22;40065;49.894;10.358;2022-09-09T19:35:38;17.30;99.90
54158;DHT22;40065;49.894;10.358;2022-09-09T19:40:40;17.20;99.90
54158;DHT22;40065;49.894;10.358;2022-09-09T19:45:41;17.10;99.90
54158;DHT22;40065;49.894;10.358;2022-09-09T19:50:43;17.00;99.90
54158;DHT22;40065;49.894;10.358;2022-09-09T19:55:48;16.90;99.90
54158;DHT22;40065;49.894;10.358;2022-09-09T20:00:51;16.50;99.90
54158;DHT22;40065;49.894;10.358;2022-09-09T20:05:54;16.50;99.90
54158;DHT22;40065;49.894;10.358;2022-09-09T20:10:56;16.50;99.90
54158;DHT22;40065;49.894;10.358;2022-09-09T20:15:59;16.40;99.90
54158;DHT22;40065;49.894;10.358;2022-09-09T20:21:03;16.40;99.90
54158;DHT22;40065;49.894;10.358;2022-09-09T20:26:08;16.30;99.90
54158;DHT22;40065;49.894;10.358;2022-09-09T20:31:15;16.50;99.90
54158;DHT22;40065;49.894;10.358;2022-09-09T20:36:20;16.40;99.90
54158;DHT22;40065;49.894;10.358;2022-09-09T20:41:24;16.40;99.90
54158;DHT22;40065;49.894;10.358;2022-09-09T20:46:35;16.50;99.90
54158;DHT22;40065;49.894;10.358;2022-09-09T20:51:37;16.40;99.90
54158;DHT22;40065;49.894;10.358;2022-09-09T20:56:41;16.60;99.90
54158;DHT22;40065;49.894;10.358;2022-09-09T21:01:43;16.70;99.90
54158;DHT22;40065;49.894;10.358;2022-09-09T21:06:48;16.80;99.90
54158;DHT22;40065;49.894;10.358;2022-09-09T21:11:52;16.60;99.90
54158;DHT22;40065;49.894;10.358;2022-09-09T21:16:54;16.70;99.90
54158;DHT22;40065;49.894;10.358;2022-09-09T21:21:55;16.80;99.90
54158;DHT22;40065;49.894;10.358;2022-09-09T21:26:57;16.70;99.90
54158;DHT22;40065;49.894;10.358;2022-09-09T21:32:01;16.80;99.90
54158;DHT22;40065;49.894;10.358;2022-09-09T21:37:04;16.90;99.90
54158;DHT22;40065;49.894;10.358;2022-09-09T21:42:05;16.90;99.90
54158;DHT22;40065;49.894;10.358;2022-09-09T21:47:07;16.90;99.90
54158;DHT22;40065;49.894;10.358;2022-09-09T21:52:09;16.90;99.90
54158;DHT22;40065;49.894;10.358;2022-09-09T21:57:11;16.90;99.90
54158;DHT22;40065;49.894;10.358;2022-09-09T22:02:14;16.80;99.90
54158;DHT22;40065;49.894;10.358;2022-09-09T22:07:17;16.80;99.90
54158;DHT22;40065;49.894;10.358;2022-09-09T22:12:19;16.80;99.90
54158;DHT22;40065;49.894;10.358;2022-09-09T22:17:21;16.90;99.90
54158;DHT22;40065;49.894;10.358;2022-09-09T22:22:25;16.90;99.90
54158;DHT22;40065;49.894;10.358;2022-09-09T22:27:27;16.90;99.90
54158;DHT22;40065;49.894;10.358;2022-09-09T22:32:28;16.80;99.90
54158;DHT22;40065;49.894;10.358;2022-09-09T22:37:30;16.70;99.90
54158;DHT22;40065;49.894;10.358;2022-09-09T22:42:32;16.50;99.90
54158;DHT22;40065;49.894;10.358;2022-09-09T22:47:35;16.40;99.90
54158;DHT22;40065;49.894;10.358;2022-09-09T22:52:37;16.30;99.90
54158;DHT22;40065;49.894;10.358;2022-09-09T22:57:39;16.20;99.90
54158;DHT22;40065;49.894;10.358;2022-09-09T23:02:42;16.20;99.90
54158;DHT22;40065;49.894;10.358;2022-09-09T23:07:45;16.20;99.90
54158;DHT22;40065;49.894;10.358;2022-09-09T23:12:47;16.20;99.90
54158;DHT22;40065;49.894;10.358;2022-09-09T23:17:50;16.20;99.90
54158;DHT22;40065;49.894;10.358;2022-09-09T23:22:55;16.30;99.90
54158;DHT22;40065;49.894;10.358;2022-09-09T23:27:57;16.30;99.90
54158;DHT22;40065;49.894;10.358;2022-09-09T23:32:59;16.20;99.90
54158;DHT22;40065;49.894;10.358;2022-09-09T23:38:00;16.40;99.90
54158;DHT22;40065;49.894;10.358;2022-09-09T23:43:02;16.40;99.90
54158;DHT22;40065;49.894;10.358;2022-09-09T23:48:05;16.40;99.90
54158;DHT22;40065;49.894;10.358;2022-09-09T23:53:07;16.30;99.90
54158;DHT22;40065;49.894;10.358;2022-09-09T23:58:09;16.40;99.90
